sensor_id;sensor_type;location;lat;lon;timestamp;P1;durP1;ratioP1;P2;durP2;ratioP2
72904;SDS011;61048;52.162;4.516;2023-10-08T00:01:37;6.78;;;2.45;;
72904;SDS011;61048;52.162;4.516;2023-10-08T00:04:07;6.90;;;2.05;;
72904;SDS011;61048;52.162;4.516;2023-10-08T00:06:36;9.45;;;3.25;;
72904;SDS011;61048;52.162;4.516;2023-10-08T00:09:05;11.98;;;3.20;;
72904;SDS011;61048;52.162;4.516;2023-10-08T00:11:35;8.52;;;2.17;;
72904;SDS011;61048;52.162;4.516;2023-10-08T00:14:03;8.18;;;2.75;;
72904;SDS011;61048;52.162;4.516;2023-10-08T00:16:35;10.10;;;3.40;;
72904;SDS011;61048;52.162;4.516;2023-10-08T00:19:05;7.03;;;2.15;;
72904;SDS011;61048;52.162;4.516;2023-10-08T00:21:39;8.80;;;3.00;;
72904;SDS011;61048;52.162;4.516;2023-10-08T00:24:09;6.50;;;3.08;;
72904;SDS011;61048;52.162;4.516;2023-10-08T00:26:37;13.15;;;2.55;;
72904;SDS011;61048;52.162;4.516;2023-10-08T00:29:06;6.90;;;2.58;;
72904;SDS011;61048;52.162;4.516;2023-10-08T00:31:41;8.45;;;2.42;;
72904;SDS011;61048;52.162;4.516;2023-10-08T00:34:10;9.80;;;2.95;;
72904;SDS011;61048;52.162;4.516;2023-10-08T00:36:40;7.05;;;2.55;;
72904;SDS011;61048;52.162;4.516;2023-10-08T00:39:08;9.10;;;2.58;;
72904;SDS011;61048;52.162;4.516;2023-10-08T00:41:39;8.88;;;1.83;;
72904;SDS011;61048;52.162;4.516;2023-10-08T00:44:08;6.40;;;2.50;;
72904;SDS011;61048;52.162;4.516;2023-10-08T00:46:37;6.85;;;2.13;;
72904;SDS011;61048;52.162;4.516;2023-10-08T00:49:08;7.10;;;2.25;;
72904;SDS011;61048;52.162;4.516;2023-10-08T00:51:51;6.80;;;3.67;;
72904;SDS011;61048;52.162;4.516;2023-10-08T00:54:43;9.18;;;2.80;;
72904;SDS011;61048;52.162;4.516;2023-10-08T00:57:22;6.65;;;2.58;;
72904;SDS011;61048;52.162;4.516;2023-10-08T00:59:52;7.07;;;2.08;;
72904;SDS011;61048;52.162;4.516;2023-10-08T01:02:19;6.60;;;2.20;;
72904;SDS011;61048;52.162;4.516;2023-10-08T01:04:50;7.95;;;2.58;;
72904;SDS011;61048;52.162;4.516;2023-10-08T01:07:21;5.85;;;2.25;;
72904;SDS011;61048;52.162;4.516;2023-10-08T01:09:49;7.05;;;2.63;;
72904;SDS011;61048;52.162;4.516;2023-10-08T01:12:16;7.57;;;2.72;;
72904;SDS011;61048;52.162;4.516;2023-10-08T01:14:49;8.02;;;2.53;;
72904;SDS011;61048;52.162;4.516;2023-10-08T01:17:19;8.73;;;2.00;;
72904;SDS011;61048;52.162;4.516;2023-10-08T01:19:49;5.22;;;1.88;;
72904;SDS011;61048;52.162;4.516;2023-10-08T01:22:22;7.45;;;2.42;;
72904;SDS011;61048;52.162;4.516;2023-10-08T01:24:54;9.68;;;2.30;;
72904;SDS011;61048;52.162;4.516;2023-10-08T01:27:21;6.53;;;2.85;;
72904;SDS011;61048;52.162;4.516;2023-10-08T01:29:49;7.65;;;2.55;;
72904;SDS011;61048;52.162;4.516;2023-10-08T01:32:17;8.18;;;3.20;;
72904;SDS011;61048;52.162;4.516;2023-10-08T01:34:45;9.20;;;3.03;;
72904;SDS011;61048;52.162;4.516;2023-10-08T01:37:13;8.35;;;3.00;;
72904;SDS011;61048;52.162;4.516;2023-10-08T01:39:43;6.10;;;2.30;;
72904;SDS011;61048;52.162;4.516;2023-10-08T01:42:10;6.43;;;2.80;;
72904;SDS011;61048;52.162;4.516;2023-10-08T01:44:42;6.57;;;2.45;;
72904;SDS011;61048;52.162;4.516;2023-10-08T01:47:12;7.10;;;3.03;;
72904;SDS011;61048;52.162;4.516;2023-10-08T01:49:41;10.20;;;2.75;;
72904;SDS011;61048;52.162;4.516;2023-10-08T01:52:09;6.90;;;2.72;;
72904;SDS011;61048;52.162;4.516;2023-10-08T01:54:47;5.53;;;2.13;;
72904;SDS011;61048;52.162;4.516;2023-10-08T01:57:14;9.38;;;2.80;;
72904;SDS011;61048;52.162;4.516;2023-10-08T01:59:43;7.20;;;3.20;;
72904;SDS011;61048;52.162;4.516;2023-10-08T02:02:10;8.40;;;3.00;;
72904;SDS011;61048;52.162;4.516;2023-10-08T02:04:40;7.60;;;3.03;;
72904;SDS011;61048;52.162;4.516;2023-10-08T02:07:08;6.93;;;3.00;;
72904;SDS011;61048;52.162;4.516;2023-10-08T02:09:37;8.68;;;2.97;;
72904;SDS011;61048;52.162;4.516;2023-10-08T02:12:06;5.90;;;3.10;;
72904;SDS011;61048;52.162;4.516;2023-10-08T02:14:33;7.75;;;2.35;;
72904;SDS011;61048;52.162;4.516;2023-10-08T02:17:00;7.70;;;2.97;;
72904;SDS011;61048;52.162;4.516;2023-10-08T02:19:31;8.82;;;2.70;;
72904;SDS011;61048;52.162;4.516;2023-10-08T02:21:59;5.22;;;2.33;;
72904;SDS011;61048;52.162;4.516;2023-10-08T02:24:27;6.20;;;2.15;;
72904;SDS011;61048;52.162;4.516;2023-10-08T02:26:55;6.82;;;2.67;;
72904;SDS011;61048;52.162;4.516;2023-10-08T02:29:25;6.43;;;2.70;;
72904;SDS011;61048;52.162;4.516;2023-10-08T02:31:53;8.05;;;2.53;;
72904;SDS011;61048;52.162;4.516;2023-10-08T02:34:20;8.13;;;3.28;;
72904;SDS011;61048;52.162;4.516;2023-10-08T02:36:46;10.13;;;2.78;;
72904;SDS011;61048;52.162;4.516;2023-10-08T02:39:13;5.55;;;2.17;;
72904;SDS011;61048;52.162;4.516;2023-10-08T02:41:46;5.00;;;2.38;;
72904;SDS011;61048;52.162;4.516;2023-10-08T02:44:14;9.40;;;2.72;;
72904;SDS011;61048;52.162;4.516;2023-10-08T02:46:43;6.82;;;2.92;;
72904;SDS011;61048;52.162;4.516;2023-10-08T02:49:12;6.63;;;3.03;;
72904;SDS011;61048;52.162;4.516;2023-10-08T02:51:44;6.63;;;2.80;;
72904;SDS011;61048;52.162;4.516;2023-10-08T02:54:12;9.07;;;2.08;;
72904;SDS011;61048;52.162;4.516;2023-10-08T02:56:43;8.15;;;3.28;;
72904;SDS011;61048;52.162;4.516;2023-10-08T02:59:11;7.82;;;3.22;;
72904;SDS011;61048;52.162;4.516;2023-10-08T03:01:38;10.32;;;4.22;;
72904;SDS011;61048;52.162;4.516;2023-10-08T03:04:07;5.25;;;2.28;;
72904;SDS011;61048;52.162;4.516;2023-10-08T03:06:43;5.50;;;2.60;;
72904;SDS011;61048;52.162;4.516;2023-10-08T03:09:14;7.53;;;2.50;;
72904;SDS011;61048;52.162;4.516;2023-10-08T03:11:45;7.05;;;2.80;;
72904;SDS011;61048;52.162;4.516;2023-10-08T03:14:13;6.53;;;2.15;;
72904;SDS011;61048;52.162;4.516;2023-10-08T03:16:47;5.72;;;2.00;;
72904;SDS011;61048;52.162;4.516;2023-10-08T03:19:16;7.95;;;3.10;;
72904;SDS011;61048;52.162;4.516;2023-10-08T03:21:45;8.77;;;2.50;;
72904;SDS011;61048;52.162;4.516;2023-10-08T03:24:20;7.05;;;2.60;;
72904;SDS011;61048;52.162;4.516;2023-10-08T03:27:03;7.75;;;3.17;;
72904;SDS011;61048;52.162;4.516;2023-10-08T03:32:07;6.05;;;2.88;;
72904;SDS011;61048;52.162;4.516;2023-10-08T03:34:43;7.13;;;2.85;;
72904;SDS011;61048;52.162;4.516;2023-10-08T03:37:11;5.30;;;2.60;;
72904;SDS011;61048;52.162;4.516;2023-10-08T03:39:45;7.22;;;2.97;;
72904;SDS011;61048;52.162;4.516;2023-10-08T03:42:26;8.15;;;2.78;;
72904;SDS011;61048;52.162;4.516;2023-10-08T03:44:59;11.90;;;3.25;;
72904;SDS011;61048;52.162;4.516;2023-10-08T03:47:35;4.57;;;2.50;;
72904;SDS011;61048;52.162;4.516;2023-10-08T03:50:06;7.75;;;3.17;;
72904;SDS011;61048;52.162;4.516;2023-10-08T03:52:34;7.63;;;2.88;;
72904;SDS011;61048;52.162;4.516;2023-10-08T03:55:04;8.18;;;2.85;;
72904;SDS011;61048;52.162;4.516;2023-10-08T03:57:38;7.72;;;3.20;;
72904;SDS011;61048;52.162;4.516;2023-10-08T04:00:09;8.13;;;2.92;;
72904;SDS011;61048;52.162;4.516;2023-10-08T04:02:40;6.43;;;3.00;;
72904;SDS011;61048;52.162;4.516;2023-10-08T04:05:20;7.18;;;2.88;;
72904;SDS011;61048;52.162;4.516;2023-10-08T04:07:52;5.75;;;2.78;;
72904;SDS011;61048;52.162;4.516;2023-10-08T04:10:39;9.82;;;2.83;;
72904;SDS011;61048;52.162;4.516;2023-10-08T04:13:33;8.73;;;3.00;;
72904;SDS011;61048;52.162;4.516;2023-10-08T04:16:04;9.15;;;2.92;;
72904;SDS011;61048;52.162;4.516;2023-10-08T04:18:31;6.32;;;2.00;;
72904;SDS011;61048;52.162;4.516;2023-10-08T04:21:06;5.53;;;1.98;;
72904;SDS011;61048;52.162;4.516;2023-10-08T04:23:38;7.43;;;3.13;;
72904;SDS011;61048;52.162;4.516;2023-10-08T04:26:05;6.18;;;2.92;;
72904;SDS011;61048;52.162;4.516;2023-10-08T04:28:33;6.63;;;3.30;;
72904;SDS011;61048;52.162;4.516;2023-10-08T04:31:01;7.72;;;3.15;;
72904;SDS011;61048;52.162;4.516;2023-10-08T04:33:39;8.73;;;3.08;;
72904;SDS011;61048;52.162;4.516;2023-10-08T04:36:08;7.15;;;2.95;;
72904;SDS011;61048;52.162;4.516;2023-10-08T04:38:34;10.75;;;4.00;;
72904;SDS011;61048;52.162;4.516;2023-10-08T04:41:05;11.30;;;4.05;;
72904;SDS011;61048;52.162;4.516;2023-10-08T04:43:35;14.43;;;2.80;;
72904;SDS011;61048;52.162;4.516;2023-10-08T04:46:04;8.48;;;4.20;;
72904;SDS011;61048;52.162;4.516;2023-10-08T04:48:43;9.68;;;3.47;;
72904;SDS011;61048;52.162;4.516;2023-10-08T04:51:12;13.15;;;3.55;;
72904;SDS011;61048;52.162;4.516;2023-10-08T04:53:39;9.20;;;3.08;;
72904;SDS011;61048;52.162;4.516;2023-10-08T04:56:09;12.77;;;3.00;;
72904;SDS011;61048;52.162;4.516;2023-10-08T04:58:41;12.05;;;2.50;;
72904;SDS011;61048;52.162;4.516;2023-10-08T05:01:11;9.48;;;2.92;;
72904;SDS011;61048;52.162;4.516;2023-10-08T05:03:46;11.23;;;2.70;;
72904;SDS011;61048;52.162;4.516;2023-10-08T05:06:49;10.68;;;3.03;;
72904;SDS011;61048;52.162;4.516;2023-10-08T05:09:26;9.27;;;3.20;;
72904;SDS011;61048;52.162;4.516;2023-10-08T05:12:06;7.95;;;2.70;;
72904;SDS011;61048;52.162;4.516;2023-10-08T05:14:54;9.57;;;3.13;;
72904;SDS011;61048;52.162;4.516;2023-10-08T05:17:47;5.15;;;1.73;;
72904;SDS011;61048;52.162;4.516;2023-10-08T05:20:23;8.77;;;2.47;;
72904;SDS011;61048;52.162;4.516;2023-10-08T05:23:10;13.00;;;1.90;;
72904;SDS011;61048;52.162;4.516;2023-10-08T05:26:07;7.95;;;2.53;;
72904;SDS011;61048;52.162;4.516;2023-10-08T05:31:13;5.00;;;1.90;;
72904;SDS011;61048;52.162;4.516;2023-10-08T05:34:01;10.43;;;1.45;;
72904;SDS011;61048;52.162;4.516;2023-10-08T05:36:40;4.97;;;1.73;;
72904;SDS011;61048;52.162;4.516;2023-10-08T05:39:37;2.97;;;1.35;;
72904;SDS011;61048;52.162;4.516;2023-10-08T05:42:07;4.32;;;1.48;;
72904;SDS011;61048;52.162;4.516;2023-10-08T05:44:42;5.75;;;1.33;;
72904;SDS011;61048;52.162;4.516;2023-10-08T05:47:11;5.63;;;1.45;;
72904;SDS011;61048;52.162;4.516;2023-10-08T05:50:03;6.93;;;1.65;;
72904;SDS011;61048;52.162;4.516;2023-10-08T05:52:48;8.30;;;1.85;;
72904;SDS011;61048;52.162;4.516;2023-10-08T05:55:29;6.03;;;1.60;;
72904;SDS011;61048;52.162;4.516;2023-10-08T05:58:00;3.88;;;1.52;;
72904;SDS011;61048;52.162;4.516;2023-10-08T06:00:50;6.47;;;1.80;;
72904;SDS011;61048;52.162;4.516;2023-10-08T06:03:34;3.47;;;1.08;;
72904;SDS011;61048;52.162;4.516;2023-10-08T06:06:14;6.35;;;1.10;;
72904;SDS011;61048;52.162;4.516;2023-10-08T06:09:00;3.60;;;1.73;;
72904;SDS011;61048;52.162;4.516;2023-10-08T06:11:47;7.55;;;2.88;;
72904;SDS011;61048;52.162;4.516;2023-10-08T06:14:35;5.47;;;2.70;;
72904;SDS011;61048;52.162;4.516;2023-10-08T06:17:18;5.90;;;2.92;;
72904;SDS011;61048;52.162;4.516;2023-10-08T06:20:09;5.35;;;2.70;;
72904;SDS011;61048;52.162;4.516;2023-10-08T06:22:41;7.03;;;3.28;;
72904;SDS011;61048;52.162;4.516;2023-10-08T06:25:08;8.32;;;3.63;;
72904;SDS011;61048;52.162;4.516;2023-10-08T06:27:53;6.72;;;3.60;;
72904;SDS011;61048;52.162;4.516;2023-10-08T06:30:22;6.35;;;2.40;;
72904;SDS011;61048;52.162;4.516;2023-10-08T06:32:50;6.38;;;3.33;;
72904;SDS011;61048;52.162;4.516;2023-10-08T06:35:19;10.35;;;3.55;;
72904;SDS011;61048;52.162;4.516;2023-10-08T06:37:50;8.82;;;3.00;;
72904;SDS011;61048;52.162;4.516;2023-10-08T06:40:20;9.35;;;3.03;;
72904;SDS011;61048;52.162;4.516;2023-10-08T06:43:06;7.28;;;4.47;;
72904;SDS011;61048;52.162;4.516;2023-10-08T06:45:39;7.95;;;3.40;;
72904;SDS011;61048;52.162;4.516;2023-10-08T06:48:07;8.38;;;3.38;;
72904;SDS011;61048;52.162;4.516;2023-10-08T06:50:35;7.38;;;2.95;;
72904;SDS011;61048;52.162;4.516;2023-10-08T06:53:02;6.18;;;2.90;;
72904;SDS011;61048;52.162;4.516;2023-10-08T06:55:33;6.63;;;2.63;;
72904;SDS011;61048;52.162;4.516;2023-10-08T06:58:01;5.25;;;2.50;;
72904;SDS011;61048;52.162;4.516;2023-10-08T07:00:33;5.00;;;2.25;;
72904;SDS011;61048;52.162;4.516;2023-10-08T07:03:05;5.95;;;1.63;;
72904;SDS011;61048;52.162;4.516;2023-10-08T07:05:36;4.32;;;1.52;;
72904;SDS011;61048;52.162;4.516;2023-10-08T07:08:06;3.70;;;2.00;;
72904;SDS011;61048;52.162;4.516;2023-10-08T07:10:34;3.33;;;1.52;;
72904;SDS011;61048;52.162;4.516;2023-10-08T07:13:02;5.03;;;2.22;;
72904;SDS011;61048;52.162;4.516;2023-10-08T07:15:29;5.50;;;2.17;;
72904;SDS011;61048;52.162;4.516;2023-10-08T07:17:58;8.20;;;2.00;;
72904;SDS011;61048;52.162;4.516;2023-10-08T07:20:34;3.55;;;1.27;;
72904;SDS011;61048;52.162;4.516;2023-10-08T07:23:05;4.50;;;1.63;;
72904;SDS011;61048;52.162;4.516;2023-10-08T07:25:37;4.22;;;1.48;;
72904;SDS011;61048;52.162;4.516;2023-10-08T07:28:04;5.95;;;1.60;;
72904;SDS011;61048;52.162;4.516;2023-10-08T07:30:36;5.88;;;1.30;;
72904;SDS011;61048;52.162;4.516;2023-10-08T07:33:06;5.10;;;1.73;;
72904;SDS011;61048;52.162;4.516;2023-10-08T07:35:36;6.88;;;1.55;;
72904;SDS011;61048;52.162;4.516;2023-10-08T07:38:06;4.32;;;1.10;;
72904;SDS011;61048;52.162;4.516;2023-10-08T07:40:34;8.30;;;1.77;;
72904;SDS011;61048;52.162;4.516;2023-10-08T07:43:02;6.90;;;1.60;;
72904;SDS011;61048;52.162;4.516;2023-10-08T07:45:33;7.80;;;2.08;;
72904;SDS011;61048;52.162;4.516;2023-10-08T07:48:01;5.57;;;1.63;;
72904;SDS011;61048;52.162;4.516;2023-10-08T07:50:33;5.28;;;1.80;;
72904;SDS011;61048;52.162;4.516;2023-10-08T07:52:59;5.47;;;1.67;;
72904;SDS011;61048;52.162;4.516;2023-10-08T07:55:29;6.85;;;2.03;;
72904;SDS011;61048;52.162;4.516;2023-10-08T07:57:57;7.45;;;1.17;;
72904;SDS011;61048;52.162;4.516;2023-10-08T08:00:24;5.05;;;1.70;;
72904;SDS011;61048;52.162;4.516;2023-10-08T08:02:55;6.03;;;1.08;;
72904;SDS011;61048;52.162;4.516;2023-10-08T08:05:22;4.85;;;1.30;;
72904;SDS011;61048;52.162;4.516;2023-10-08T08:07:51;5.55;;;1.38;;
72904;SDS011;61048;52.162;4.516;2023-10-08T08:10:21;5.55;;;1.45;;
72904;SDS011;61048;52.162;4.516;2023-10-08T08:12:49;7.68;;;1.58;;
72904;SDS011;61048;52.162;4.516;2023-10-08T08:15:16;5.53;;;1.83;;
72904;SDS011;61048;52.162;4.516;2023-10-08T08:17:43;5.10;;;1.30;;
72904;SDS011;61048;52.162;4.516;2023-10-08T08:20:13;6.90;;;1.38;;
72904;SDS011;61048;52.162;4.516;2023-10-08T08:22:47;5.07;;;1.05;;
72904;SDS011;61048;52.162;4.516;2023-10-08T08:25:20;6.35;;;1.25;;
72904;SDS011;61048;52.162;4.516;2023-10-08T08:27:59;8.35;;;1.45;;
72904;SDS011;61048;52.162;4.516;2023-10-08T08:30:26;5.65;;;1.40;;
72904;SDS011;61048;52.162;4.516;2023-10-08T08:32:52;4.97;;;0.85;;
72904;SDS011;61048;52.162;4.516;2023-10-08T08:35:21;3.95;;;1.33;;
72904;SDS011;61048;52.162;4.516;2023-10-08T08:37:49;2.83;;;0.57;;
72904;SDS011;61048;52.162;4.516;2023-10-08T08:40:17;2.42;;;0.95;;
72904;SDS011;61048;52.162;4.516;2023-10-08T08:42:46;3.75;;;0.93;;
72904;SDS011;61048;52.162;4.516;2023-10-08T08:45:15;4.10;;;0.93;;
72904;SDS011;61048;52.162;4.516;2023-10-08T08:47:46;2.92;;;0.60;;
72904;SDS011;61048;52.162;4.516;2023-10-08T08:50:13;2.17;;;1.58;;
72904;SDS011;61048;52.162;4.516;2023-10-08T08:52:42;2.78;;;0.90;;
72904;SDS011;61048;52.162;4.516;2023-10-08T08:55:10;3.20;;;1.00;;
72904;SDS011;61048;52.162;4.516;2023-10-08T08:57:40;3.60;;;1.02;;
72904;SDS011;61048;52.162;4.516;2023-10-08T09:00:10;3.13;;;1.00;;
72904;SDS011;61048;52.162;4.516;2023-10-08T09:02:39;3.58;;;0.73;;
72904;SDS011;61048;52.162;4.516;2023-10-08T09:05:07;2.20;;;1.00;;
72904;SDS011;61048;52.162;4.516;2023-10-08T09:07:52;3.58;;;0.52;;
72904;SDS011;61048;52.162;4.516;2023-10-08T09:10:23;2.88;;;0.63;;
72904;SDS011;61048;52.162;4.516;2023-10-08T09:12:52;2.55;;;0.80;;
72904;SDS011;61048;52.162;4.516;2023-10-08T09:15:23;3.22;;;0.40;;
72904;SDS011;61048;52.162;4.516;2023-10-08T09:17:51;1.50;;;0.38;;
72904;SDS011;61048;52.162;4.516;2023-10-08T09:20:18;2.42;;;0.77;;
72904;SDS011;61048;52.162;4.516;2023-10-08T09:22:46;2.50;;;0.40;;
72904;SDS011;61048;52.162;4.516;2023-10-08T09:25:33;2.25;;;0.82;;
72904;SDS011;61048;52.162;4.516;2023-10-08T09:28:00;2.45;;;0.80;;
72904;SDS011;61048;52.162;4.516;2023-10-08T09:30:34;3.10;;;0.70;;
72904;SDS011;61048;52.162;4.516;2023-10-08T09:33:03;2.45;;;1.30;;
72904;SDS011;61048;52.162;4.516;2023-10-08T09:35:31;1.63;;;0.60;;
72904;SDS011;61048;52.162;4.516;2023-10-08T09:37:59;5.60;;;0.90;;
72904;SDS011;61048;52.162;4.516;2023-10-08T09:40:28;4.38;;;0.77;;
72904;SDS011;61048;52.162;4.516;2023-10-08T09:42:55;2.85;;;0.47;;
72904;SDS011;61048;52.162;4.516;2023-10-08T09:45:22;2.67;;;0.73;;
72904;SDS011;61048;52.162;4.516;2023-10-08T09:47:52;3.80;;;1.10;;
72904;SDS011;61048;52.162;4.516;2023-10-08T09:50:21;2.08;;;0.63;;
72904;SDS011;61048;52.162;4.516;2023-10-08T09:52:55;2.30;;;0.73;;
72904;SDS011;61048;52.162;4.516;2023-10-08T09:55:27;2.83;;;1.15;;
72904;SDS011;61048;52.162;4.516;2023-10-08T09:57:55;2.28;;;0.93;;
72904;SDS011;61048;52.162;4.516;2023-10-08T10:00:22;4.07;;;1.38;;
72904;SDS011;61048;52.162;4.516;2023-10-08T10:02:57;2.10;;;1.05;;
72904;SDS011;61048;52.162;4.516;2023-10-08T10:05:28;2.33;;;0.90;;
72904;SDS011;61048;52.162;4.516;2023-10-08T10:07:56;2.83;;;1.17;;
72904;SDS011;61048;52.162;4.516;2023-10-08T10:10:27;4.75;;;1.05;;
72904;SDS011;61048;52.162;4.516;2023-10-08T10:12:58;4.63;;;1.00;;
72904;SDS011;61048;52.162;4.516;2023-10-08T10:15:25;1.63;;;0.68;;
72904;SDS011;61048;52.162;4.516;2023-10-08T10:17:58;5.28;;;1.60;;
72904;SDS011;61048;52.162;4.516;2023-10-08T10:20:34;1.75;;;0.90;;
72904;SDS011;61048;52.162;4.516;2023-10-08T10:26:05;2.55;;;1.00;;
72904;SDS011;61048;52.162;4.516;2023-10-08T10:31:46;3.58;;;0.70;;
72904;SDS011;61048;52.162;4.516;2023-10-08T10:34:20;2.65;;;1.13;;
72904;SDS011;61048;52.162;4.516;2023-10-08T10:36:50;3.80;;;1.35;;
72904;SDS011;61048;52.162;4.516;2023-10-08T10:39:21;2.83;;;1.10;;
72904;SDS011;61048;52.162;4.516;2023-10-08T10:41:53;2.58;;;0.95;;
72904;SDS011;61048;52.162;4.516;2023-10-08T10:44:22;2.47;;;1.17;;
72904;SDS011;61048;52.162;4.516;2023-10-08T10:46:50;4.95;;;1.15;;
72904;SDS011;61048;52.162;4.516;2023-10-08T10:49:39;3.42;;;1.08;;
72904;SDS011;61048;52.162;4.516;2023-10-08T10:52:14;3.40;;;1.38;;
72904;SDS011;61048;52.162;4.516;2023-10-08T10:54:56;3.35;;;1.20;;
72904;SDS011;61048;52.162;4.516;2023-10-08T10:57:24;2.95;;;1.17;;
72904;SDS011;61048;52.162;4.516;2023-10-08T11:00:01;3.28;;;0.90;;
72904;SDS011;61048;52.162;4.516;2023-10-08T11:02:50;3.88;;;1.17;;
72904;SDS011;61048;52.162;4.516;2023-10-08T11:07:50;3.60;;;1.20;;
72904;SDS011;61048;52.162;4.516;2023-10-08T11:10:19;3.50;;;1.10;;
72904;SDS011;61048;52.162;4.516;2023-10-08T11:12:49;3.08;;;0.80;;
72904;SDS011;61048;52.162;4.516;2023-10-08T11:15:19;4.32;;;1.63;;
72904;SDS011;61048;52.162;4.516;2023-10-08T11:17:49;5.60;;;2.53;;
72904;SDS011;61048;52.162;4.516;2023-10-08T11:20:25;3.65;;;1.02;;
72904;SDS011;61048;52.162;4.516;2023-10-08T11:22:52;3.15;;;1.17;;
72904;SDS011;61048;52.162;4.516;2023-10-08T11:25:20;3.10;;;1.52;;
72904;SDS011;61048;52.162;4.516;2023-10-08T11:27:52;3.65;;;1.50;;
72904;SDS011;61048;52.162;4.516;2023-10-08T11:30:26;4.72;;;1.90;;
72904;SDS011;61048;52.162;4.516;2023-10-08T11:32:56;2.67;;;1.60;;
72904;SDS011;61048;52.162;4.516;2023-10-08T11:35:26;5.22;;;1.73;;
72904;SDS011;61048;52.162;4.516;2023-10-08T11:37:57;4.78;;;1.23;;
72904;SDS011;61048;52.162;4.516;2023-10-08T11:40:26;4.10;;;1.50;;
72904;SDS011;61048;52.162;4.516;2023-10-08T11:42:56;5.05;;;1.02;;
72904;SDS011;61048;52.162;4.516;2023-10-08T11:45:23;4.85;;;1.55;;
72904;SDS011;61048;52.162;4.516;2023-10-08T11:47:52;4.72;;;1.67;;
72904;SDS011;61048;52.162;4.516;2023-10-08T11:50:26;4.38;;;1.55;;
72904;SDS011;61048;52.162;4.516;2023-10-08T11:53:00;5.43;;;1.92;;
72904;SDS011;61048;52.162;4.516;2023-10-08T11:55:28;5.25;;;2.35;;
72904;SDS011;61048;52.162;4.516;2023-10-08T11:57:59;6.78;;;1.80;;
72904;SDS011;61048;52.162;4.516;2023-10-08T12:00:34;7.68;;;1.70;;
72904;SDS011;61048;52.162;4.516;2023-10-08T12:03:09;4.95;;;2.08;;
72904;SDS011;61048;52.162;4.516;2023-10-08T12:05:38;6.63;;;1.73;;
72904;SDS011;61048;52.162;4.516;2023-10-08T12:08:12;4.90;;;1.50;;
72904;SDS011;61048;52.162;4.516;2023-10-08T12:10:41;10.20;;;2.33;;
72904;SDS011;61048;52.162;4.516;2023-10-08T12:13:08;4.88;;;2.35;;
72904;SDS011;61048;52.162;4.516;2023-10-08T12:15:36;4.88;;;2.03;;
72904;SDS011;61048;52.162;4.516;2023-10-08T12:18:05;6.50;;;2.38;;
72904;SDS011;61048;52.162;4.516;2023-10-08T12:20:40;6.30;;;2.30;;
72904;SDS011;61048;52.162;4.516;2023-10-08T12:23:09;5.53;;;2.63;;
72904;SDS011;61048;52.162;4.516;2023-10-08T12:25:38;4.75;;;2.03;;
72904;SDS011;61048;52.162;4.516;2023-10-08T12:28:11;5.15;;;1.77;;
72904;SDS011;61048;52.162;4.516;2023-10-08T12:30:40;5.93;;;2.63;;
72904;SDS011;61048;52.162;4.516;2023-10-08T12:33:08;8.40;;;2.97;;
72904;SDS011;61048;52.162;4.516;2023-10-08T12:35:42;19.25;;;4.22;;
72904;SDS011;61048;52.162;4.516;2023-10-08T12:38:09;34.13;;;8.07;;
72904;SDS011;61048;52.162;4.516;2023-10-08T12:40:38;26.88;;;8.30;;
72904;SDS011;61048;52.162;4.516;2023-10-08T12:43:18;31.77;;;7.57;;
72904;SDS011;61048;52.162;4.516;2023-10-08T12:45:45;29.15;;;8.02;;
72904;SDS011;61048;52.162;4.516;2023-10-08T12:50:46;25.80;;;7.47;;
72904;SDS011;61048;52.162;4.516;2023-10-08T12:53:19;24.73;;;6.43;;
72904;SDS011;61048;52.162;4.516;2023-10-08T12:55:49;22.95;;;6.72;;
72904;SDS011;61048;52.162;4.516;2023-10-08T12:58:18;21.92;;;5.85;;
72904;SDS011;61048;52.162;4.516;2023-10-08T13:03:22;16.88;;;6.20;;
72904;SDS011;61048;52.162;4.516;2023-10-08T13:05:51;18.60;;;5.35;;
72904;SDS011;61048;52.162;4.516;2023-10-08T13:08:19;18.00;;;5.28;;
72904;SDS011;61048;52.162;4.516;2023-10-08T13:10:46;15.68;;;6.05;;
72904;SDS011;61048;52.162;4.516;2023-10-08T13:13:13;17.67;;;5.60;;
72904;SDS011;61048;52.162;4.516;2023-10-08T13:15:40;18.70;;;5.40;;
72904;SDS011;61048;52.162;4.516;2023-10-08T13:18:08;15.70;;;4.63;;
72904;SDS011;61048;52.162;4.516;2023-10-08T13:20:35;18.83;;;5.88;;
72904;SDS011;61048;52.162;4.516;2023-10-08T13:23:07;16.08;;;5.18;;
72904;SDS011;61048;52.162;4.516;2023-10-08T13:25:34;15.45;;;4.82;;
72904;SDS011;61048;52.162;4.516;2023-10-08T13:28:04;11.35;;;4.78;;
72904;SDS011;61048;52.162;4.516;2023-10-08T13:30:35;12.93;;;4.43;;
72904;SDS011;61048;52.162;4.516;2023-10-08T13:33:03;14.05;;;5.20;;
72904;SDS011;61048;52.162;4.516;2023-10-08T13:35:33;13.05;;;4.50;;
72904;SDS011;61048;52.162;4.516;2023-10-08T13:38:00;15.20;;;4.47;;
72904;SDS011;61048;52.162;4.516;2023-10-08T13:40:35;10.45;;;4.30;;
72904;SDS011;61048;52.162;4.516;2023-10-08T13:43:08;11.35;;;4.85;;
72904;SDS011;61048;52.162;4.516;2023-10-08T13:45:36;11.52;;;4.50;;
72904;SDS011;61048;52.162;4.516;2023-10-08T13:48:05;12.15;;;4.45;;
72904;SDS011;61048;52.162;4.516;2023-10-08T13:50:38;11.63;;;4.38;;
72904;SDS011;61048;52.162;4.516;2023-10-08T13:53:05;10.63;;;4.57;;
72904;SDS011;61048;52.162;4.516;2023-10-08T13:55:33;11.60;;;3.65;;
72904;SDS011;61048;52.162;4.516;2023-10-08T13:58:01;11.65;;;3.60;;
72904;SDS011;61048;52.162;4.516;2023-10-08T14:00:28;12.68;;;3.33;;
72904;SDS011;61048;52.162;4.516;2023-10-08T14:03:01;10.63;;;4.03;;
72904;SDS011;61048;52.162;4.516;2023-10-08T14:05:33;10.43;;;4.50;;
72904;SDS011;61048;52.162;4.516;2023-10-08T14:08:00;13.38;;;3.85;;
72904;SDS011;61048;52.162;4.516;2023-10-08T14:10:29;11.68;;;4.35;;
72904;SDS011;61048;52.162;4.516;2023-10-08T14:12:56;13.43;;;3.70;;
72904;SDS011;61048;52.162;4.516;2023-10-08T14:15:28;8.88;;;4.00;;
72904;SDS011;61048;52.162;4.516;2023-10-08T14:17:57;7.38;;;3.33;;
72904;SDS011;61048;52.162;4.516;2023-10-08T14:20:30;10.27;;;4.30;;
72904;SDS011;61048;52.162;4.516;2023-10-08T14:22:57;7.20;;;4.18;;
72904;SDS011;61048;52.162;4.516;2023-10-08T14:25:27;11.85;;;4.13;;
72904;SDS011;61048;52.162;4.516;2023-10-08T14:27:58;10.85;;;3.30;;
72904;SDS011;61048;52.162;4.516;2023-10-08T14:30:31;11.23;;;4.50;;
72904;SDS011;61048;52.162;4.516;2023-10-08T14:33:00;9.98;;;3.67;;
72904;SDS011;61048;52.162;4.516;2023-10-08T14:35:28;12.10;;;4.97;;
72904;SDS011;61048;52.162;4.516;2023-10-08T14:38:13;8.18;;;4.00;;
72904;SDS011;61048;52.162;4.516;2023-10-08T14:40:58;7.07;;;3.40;;
72904;SDS011;61048;52.162;4.516;2023-10-08T14:43:42;10.07;;;4.93;;
72904;SDS011;61048;52.162;4.516;2023-10-08T14:46:10;10.18;;;4.57;;
72904;SDS011;61048;52.162;4.516;2023-10-08T14:48:40;9.75;;;4.25;;
72904;SDS011;61048;52.162;4.516;2023-10-08T14:51:07;9.75;;;4.30;;
72904;SDS011;61048;52.162;4.516;2023-10-08T14:53:41;8.02;;;3.60;;
72904;SDS011;61048;52.162;4.516;2023-10-08T14:56:08;10.13;;;4.45;;
72904;SDS011;61048;52.162;4.516;2023-10-08T14:58:35;8.55;;;4.35;;
72904;SDS011;61048;52.162;4.516;2023-10-08T15:01:02;8.35;;;3.58;;
72904;SDS011;61048;52.162;4.516;2023-10-08T15:03:30;8.82;;;3.85;;
72904;SDS011;61048;52.162;4.516;2023-10-08T15:05:57;9.38;;;3.95;;
72904;SDS011;61048;52.162;4.516;2023-10-08T15:08:24;10.18;;;4.38;;
72904;SDS011;61048;52.162;4.516;2023-10-08T15:10:52;10.00;;;4.30;;
72904;SDS011;61048;52.162;4.516;2023-10-08T15:13:19;9.13;;;3.88;;
72904;SDS011;61048;52.162;4.516;2023-10-08T15:15:46;8.32;;;3.42;;
72904;SDS011;61048;52.162;4.516;2023-10-08T15:18:14;12.18;;;5.20;;
72904;SDS011;61048;52.162;4.516;2023-10-08T15:20:44;8.48;;;3.53;;
72904;SDS011;61048;52.162;4.516;2023-10-08T15:23:11;9.00;;;4.10;;
72904;SDS011;61048;52.162;4.516;2023-10-08T15:25:38;7.85;;;3.72;;
72904;SDS011;61048;52.162;4.516;2023-10-08T15:28:06;10.05;;;4.93;;
72904;SDS011;61048;52.162;4.516;2023-10-08T15:30:33;8.80;;;4.20;;